createdAt,value
2023-05-22T00:01:49.448Z,10.40
2023-05-22T00:04:52.998Z,8.50
2023-05-22T00:07:56.395Z,9.23
2023-05-22T00:10:59.812Z,11.98
2023-05-22T00:14:03.204Z,12.00
2023-05-22T00:17:08.032Z,9.43
2023-05-22T00:20:13.989Z,8.45
2023-05-22T00:23:17.340Z,9.43
2023-05-22T00:26:22.429Z,12.27
2023-05-22T00:29:25.724Z,9.63
2023-05-22T00:32:30.878Z,9.05
2023-05-22T00:35:34.814Z,9.80
2023-05-22T00:38:38.384Z,8.40
2023-05-22T00:41:42.185Z,8.38
2023-05-22T00:44:45.997Z,13.10
2023-05-22T00:47:50.776Z,12.07
2023-05-22T00:50:56.468Z,10.82
2023-05-22T00:54:00.167Z,12.00
2023-05-22T00:57:04.115Z,9.93
2023-05-22T01:00:10.898Z,11.38
2023-05-22T01:03:16.628Z,9.23
2023-05-22T01:06:21.508Z,9.02
2023-05-22T01:09:25.070Z,10.60
2023-05-22T01:12:35.815Z,13.85
2023-05-22T01:15:44.823Z,15.55
2023-05-22T01:18:59.229Z,10.98
2023-05-22T01:22:17.724Z,11.18
2023-05-22T01:25:50.653Z,14.67
2023-05-22T01:29:10.131Z,11.15
2023-05-22T01:32:21.869Z,12.52
2023-05-22T01:35:29.797Z,9.75
2023-05-22T01:38:35.222Z,10.73
2023-05-22T01:41:39.525Z,15.20
2023-05-22T01:44:43.075Z,9.95
2023-05-22T01:47:47.683Z,9.95
2023-05-22T01:50:54.876Z,12.02
2023-05-22T01:54:06.004Z,12.18
2023-05-22T01:57:14.438Z,12.20
2023-05-22T02:03:42.076Z,9.98
2023-05-22T02:06:47.171Z,12.88
2023-05-22T02:09:51.890Z,13.25
2023-05-22T02:12:55.246Z,13.32
2023-05-22T02:15:59.500Z,10.90
2023-05-22T02:19:06.684Z,10.07
2023-05-22T02:22:13.793Z,12.80
2023-05-22T02:25:17.745Z,10.32
2023-05-22T02:28:21.903Z,9.70
2023-05-22T02:31:25.218Z,11.57
2023-05-22T02:34:31.616Z,11.68
2023-05-22T02:37:35.830Z,11.50
2023-05-22T02:40:39.520Z,14.88
2023-05-22T02:43:43.160Z,11.50
2023-05-22T02:46:47.394Z,13.85
2023-05-22T02:49:52.085Z,11.02
2023-05-22T02:52:55.443Z,11.18
2023-05-22T02:55:59.826Z,9.90
2023-05-22T02:59:03.218Z,14.05
2023-05-22T03:02:07.326Z,14.35
2023-05-22T03:05:12.117Z,12.50
2023-05-22T03:08:16.727Z,13.07
2023-05-22T03:11:19.972Z,11.90
2023-05-22T03:14:23.178Z,15.68
2023-05-22T03:17:26.697Z,12.63
2023-05-22T03:20:32.763Z,14.55
2023-05-22T03:23:36.214Z,10.88
2023-05-22T03:26:39.981Z,11.88
2023-05-22T03:29:46.057Z,12.30
2023-05-22T03:32:49.547Z,10.32
2023-05-22T03:35:54.324Z,10.88
2023-05-22T03:38:57.967Z,12.27
2023-05-22T03:42:01.253Z,11.88
2023-05-22T03:45:06.361Z,11.60
2023-05-22T03:48:10.631Z,9.77
2023-05-22T03:51:18.058Z,11.82
2023-05-22T03:54:22.701Z,9.52
2023-05-22T03:57:25.908Z,11.45
2023-05-22T04:00:29.256Z,12.23
2023-05-22T04:03:32.475Z,12.35
2023-05-22T04:06:43.058Z,9.55
2023-05-22T04:09:49.327Z,13.60
2023-05-22T04:12:52.659Z,11.90
2023-05-22T04:15:56.875Z,12.43
2023-05-22T04:19:01.773Z,10.63
2023-05-22T04:22:06.794Z,9.27
2023-05-22T04:25:10.842Z,12.90
2023-05-22T04:28:14.435Z,13.32
2023-05-22T04:31:18.504Z,14.27
2023-05-22T04:34:21.909Z,9.73
2023-05-22T04:37:28.807Z,8.73
2023-05-22T04:40:33.714Z,8.15
2023-05-22T04:43:38.773Z,10.60
2023-05-22T04:46:43.911Z,8.85
2023-05-22T04:49:47.511Z,9.45
2023-05-22T04:52:53.481Z,10.48
2023-05-22T04:55:57.037Z,10.88
2023-05-22T04:59:01.281Z,9.45
2023-05-22T05:02:04.735Z,11.80
2023-05-22T05:05:08.973Z,12.32
2023-05-22T05:08:17.428Z,13.00
2023-05-22T05:11:21.753Z,7.47
2023-05-22T05:14:25.407Z,9.70
2023-05-22T05:17:28.897Z,12.57
2023-05-22T05:20:32.367Z,15.55
2023-05-22T05:23:37.036Z,24.45
2023-05-22T05:26:40.620Z,9.23
2023-05-22T05:29:44.592Z,8.68
2023-05-22T05:33:00.276Z,8.25
2023-05-22T05:36:11.220Z,17.60
2023-05-22T05:39:16.276Z,11.23
2023-05-22T05:42:19.901Z,8.00
2023-05-22T05:45:24.967Z,10.57
2023-05-22T05:48:28.931Z,11.10
2023-05-22T05:51:32.856Z,14.82
2023-05-22T05:54:37.641Z,6.90
2023-05-22T05:57:48.643Z,9.70
2023-05-22T06:00:59.548Z,12.75
2023-05-22T06:04:05.426Z,14.75
2023-05-22T06:07:12.509Z,13.15
2023-05-22T06:10:22.865Z,10.95
2023-05-22T06:13:34.679Z,12.25
2023-05-22T06:16:38.049Z,11.85
2023-05-22T06:19:42.228Z,14.90
2023-05-22T06:22:45.865Z,10.40
2023-05-22T06:25:50.936Z,14.07
2023-05-22T06:28:54.672Z,9.30
2023-05-22T06:32:00.170Z,12.55
2023-05-22T06:35:05.978Z,15.98
2023-05-22T06:38:09.889Z,8.77
2023-05-22T06:41:15.466Z,6.65
2023-05-22T06:44:19.198Z,15.38
2023-05-22T06:47:29.683Z,12.27
2023-05-22T06:50:33.738Z,8.70
2023-05-22T06:53:37.071Z,13.65
2023-05-22T06:56:47.172Z,12.98
2023-05-22T06:59:54.469Z,11.52
2023-05-22T07:03:21.319Z,15.18
2023-05-22T07:06:54.108Z,10.05
2023-05-22T07:09:58.104Z,6.85
2023-05-22T07:13:02.766Z,9.82
2023-05-22T07:16:07.923Z,11.40
2023-05-22T07:19:12.357Z,9.25
2023-05-22T07:22:16.690Z,8.75
2023-05-22T07:25:21.232Z,11.77
2023-05-22T07:28:26.011Z,6.60
2023-05-22T07:31:48.499Z,11.43
2023-05-22T07:34:52.250Z,15.50
2023-05-22T07:37:55.626Z,4.93
2023-05-22T07:40:59.522Z,7.57
2023-05-22T07:44:06.411Z,9.60
2023-05-22T07:47:12.929Z,7.55
2023-05-22T07:50:17.831Z,6.50
2023-05-22T07:53:22.619Z,7.60
2023-05-22T07:56:27.954Z,12.57
2023-05-22T07:59:34.548Z,7.43
2023-05-22T08:02:38.127Z,4.97
2023-05-22T08:05:41.462Z,8.45
2023-05-22T08:08:44.757Z,11.35
2023-05-22T08:11:48.302Z,9.82
2023-05-22T08:14:52.922Z,8.45
2023-05-22T08:17:56.386Z,4.72
2023-05-22T08:21:00.714Z,4.22
2023-05-22T08:24:04.047Z,7.80
2023-05-22T08:27:07.794Z,5.75
2023-05-22T08:30:12.961Z,8.27
2023-05-22T08:33:16.546Z,6.05
2023-05-22T08:36:20.253Z,8.00
2023-05-22T08:39:23.534Z,5.47
2023-05-22T08:42:26.889Z,8.15
2023-05-22T08:45:34.164Z,7.65
2023-05-22T08:48:38.380Z,4.03
2023-05-22T08:51:43.314Z,12.35
2023-05-22T08:54:53.283Z,5.72
2023-05-22T08:57:57.760Z,13.00
2023-05-22T09:01:03.358Z,8.57
2023-05-22T09:04:06.818Z,7.28
2023-05-22T09:07:10.327Z,6.65
2023-05-22T09:10:14.034Z,8.65
2023-05-22T09:13:26.556Z,8.57
2023-05-22T09:16:31.282Z,6.28
2023-05-22T09:19:35.266Z,9.15
2023-05-22T09:22:39.564Z,7.93
2023-05-22T09:25:44.116Z,13.00
2023-05-22T09:28:48.894Z,6.18
2023-05-22T09:31:53.858Z,8.30
2023-05-22T09:35:04.621Z,18.48
2023-05-22T09:38:10.860Z,8.40
2023-05-22T09:41:22.185Z,14.27
2023-05-22T09:44:26.934Z,5.72
2023-05-22T09:47:32.070Z,6.00
2023-05-22T09:50:35.640Z,6.03
2023-05-22T09:53:44.841Z,12.52
2023-05-22T09:56:50.888Z,6.07
2023-05-22T09:59:58.297Z,7.05
2023-05-22T10:03:12.036Z,4.53
2023-05-22T10:06:18.213Z,11.23
2023-05-22T10:09:25.739Z,9.88
2023-05-22T10:12:34.252Z,6.05
2023-05-22T10:15:37.687Z,9.02
2023-05-22T10:18:43.358Z,10.25
2023-05-22T10:21:47.900Z,8.05
2023-05-22T10:24:52.486Z,6.00
2023-05-22T10:27:56.964Z,5.30
2023-05-22T10:31:06.050Z,3.65
2023-05-22T10:34:52.791Z,5.57
2023-05-22T10:38:03.756Z,6.90
2023-05-22T10:41:08.039Z,5.00
2023-05-22T10:44:11.354Z,7.65
2023-05-22T10:47:16.008Z,6.70
2023-05-22T10:50:20.726Z,25.65
2023-05-22T10:53:25.517Z,5.07
2023-05-22T10:56:35.343Z,4.82
2023-05-22T10:59:38.905Z,9.57
2023-05-22T11:02:44.424Z,5.78
2023-05-22T11:08:58.742Z,5.07
2023-05-22T11:12:25.128Z,6.07
2023-05-22T11:15:32.746Z,6.82
2023-05-22T11:18:36.130Z,5.55
2023-05-22T11:21:45.824Z,4.38
2023-05-22T11:24:49.411Z,5.95
2023-05-22T11:27:54.066Z,9.50
2023-05-22T11:30:58.530Z,15.75
2023-05-22T11:34:02.150Z,6.63
2023-05-22T11:37:07.044Z,5.90
2023-05-22T11:40:11.511Z,5.40
2023-05-22T11:43:14.805Z,5.07
2023-05-22T11:46:18.174Z,7.85
2023-05-22T11:49:24.002Z,6.53
2023-05-22T11:52:32.865Z,5.97
2023-05-22T11:55:36.262Z,7.35
2023-05-22T11:58:39.460Z,5.40
2023-05-22T12:01:42.717Z,4.05
2023-05-22T12:04:46.238Z,4.85
2023-05-22T12:07:51.444Z,3.78
2023-05-22T12:10:55.474Z,7.20
2023-05-22T12:14:02.165Z,6.07
2023-05-22T12:17:06.374Z,3.70
2023-05-22T12:20:14.317Z,6.03
2023-05-22T12:23:24.409Z,8.32
2023-05-22T12:29:30.687Z,8.07
2023-05-22T12:32:33.951Z,4.70
2023-05-22T12:35:39.805Z,8.18
2023-05-22T12:38:45.034Z,4.28
2023-05-22T12:41:48.242Z,5.30
2023-05-22T12:44:54.075Z,7.07
2023-05-22T12:47:57.450Z,5.38
2023-05-22T12:51:00.897Z,5.20
2023-05-22T12:54:06.079Z,9.77
2023-05-22T12:57:09.762Z,6.03
2023-05-22T13:00:14.285Z,3.60
2023-05-22T13:03:17.692Z,8.35
2023-05-22T13:06:21.542Z,13.20
2023-05-22T13:09:26.241Z,8.63
2023-05-22T13:12:30.971Z,7.65
2023-05-22T13:15:36.131Z,5.25
2023-05-22T13:18:39.459Z,4.55
2023-05-22T13:21:43.367Z,3.00
2023-05-22T13:24:48.212Z,5.00
2023-05-22T13:27:51.583Z,6.47
2023-05-22T13:30:55.188Z,13.98
2023-05-22T13:33:59.169Z,8.98
2023-05-22T13:37:03.660Z,4.57
2023-05-22T13:40:09.771Z,9.10
2023-05-22T13:43:13.230Z,6.85
2023-05-22T13:46:18.062Z,5.05
2023-05-22T13:49:21.492Z,4.97
2023-05-22T13:52:24.795Z,7.93
2023-05-22T13:55:29.803Z,5.60
2023-05-22T13:58:33.191Z,4.38
2023-05-22T14:01:37.001Z,4.32
2023-05-22T14:04:41.339Z,6.18
2023-05-22T14:07:44.697Z,3.92
2023-05-22T14:10:49.496Z,6.47
2023-05-22T14:13:54.157Z,12.40
2023-05-22T14:16:57.498Z,5.95
2023-05-22T14:20:00.853Z,6.57
2023-05-22T14:23:04.166Z,4.38
2023-05-22T14:26:08.794Z,8.18
2023-05-22T14:29:12.550Z,3.40
2023-05-22T14:32:15.854Z,4.22
2023-05-22T14:35:19.146Z,6.85
2023-05-22T14:38:22.416Z,4.07
2023-05-22T14:41:27.169Z,5.70
2023-05-22T14:44:30.432Z,4.25
2023-05-22T14:47:33.710Z,11.23
2023-05-22T14:50:36.970Z,10.07
2023-05-22T14:53:40.551Z,29.17
2023-05-22T14:56:45.388Z,17.17
2023-05-22T14:59:48.698Z,9.88
2023-05-22T15:02:52.167Z,5.50
2023-05-22T15:05:55.511Z,4.25
2023-05-22T15:08:58.752Z,10.15
2023-05-22T15:12:03.469Z,12.90
2023-05-22T15:15:07.729Z,3.50
2023-05-22T15:18:11.485Z,7.00
2023-05-22T15:21:14.850Z,9.93
2023-05-22T15:24:18.188Z,3.70
2023-05-22T15:27:23.219Z,4.78
2023-05-22T15:30:27.289Z,6.38
2023-05-22T15:33:30.808Z,5.13
2023-05-22T15:36:36.487Z,8.65
2023-05-22T15:39:39.789Z,4.85
2023-05-22T15:42:44.517Z,5.20
2023-05-22T15:45:50.361Z,4.30
2023-05-22T15:48:54.634Z,6.28
2023-05-22T15:52:00.574Z,3.30
2023-05-22T15:55:04.885Z,8.30
2023-05-22T15:58:10.177Z,4.18
2023-05-22T16:01:13.694Z,4.18
2023-05-22T16:04:17.577Z,6.68
2023-05-22T16:07:20.922Z,3.85
2023-05-22T16:10:24.224Z,6.28
2023-05-22T16:13:29.250Z,2.40
2023-05-22T16:16:32.751Z,2.97
2023-05-22T16:19:36.253Z,6.00
2023-05-22T16:22:48.293Z,5.88
2023-05-22T16:25:52.273Z,4.10
2023-05-22T16:28:57.046Z,5.30
2023-05-22T16:32:00.339Z,5.15
2023-05-22T16:35:03.934Z,5.97
2023-05-22T16:38:11.669Z,5.13
2023-05-22T16:41:16.289Z,6.10
2023-05-22T16:44:21.216Z,4.25
2023-05-22T16:47:24.601Z,3.88
2023-05-22T16:50:28.467Z,4.10
2023-05-22T16:53:32.034Z,5.10
2023-05-22T16:56:35.708Z,8.38
2023-05-22T16:59:41.353Z,6.40
2023-05-22T17:02:44.941Z,6.38
2023-05-22T17:05:48.639Z,7.07
2023-05-22T17:08:52.065Z,7.03
2023-05-22T17:11:56.058Z,5.70
2023-05-22T17:15:01.531Z,6.43
2023-05-22T17:18:05.601Z,7.88
2023-05-22T17:21:10.279Z,6.25
2023-05-22T17:24:14.792Z,6.85
2023-05-22T17:27:34.409Z,6.13
2023-05-22T17:30:40.852Z,6.20
2023-05-22T17:33:45.234Z,4.47
2023-05-22T17:36:49.530Z,6.18
2023-05-22T17:39:53.176Z,6.13
2023-05-22T17:42:58.144Z,6.38
2023-05-22T17:46:04.436Z,7.90
2023-05-22T17:49:08.107Z,5.65
2023-05-22T17:52:13.030Z,9.70
2023-05-22T17:55:16.452Z,13.63
2023-05-22T17:58:20.607Z,20.65
2023-05-22T18:01:27.209Z,24.33
2023-05-22T18:04:30.776Z,24.00
2023-05-22T18:07:34.178Z,22.42
2023-05-22T18:10:37.600Z,19.73
2023-05-22T18:13:41.576Z,16.80
2023-05-22T18:16:46.350Z,10.38
2023-05-22T18:19:49.937Z,15.95
2023-05-22T18:22:53.393Z,8.43
2023-05-22T18:25:57.331Z,11.77
2023-05-22T18:29:00.911Z,15.48
2023-05-22T18:32:09.336Z,15.40
2023-05-22T18:35:12.956Z,13.00
2023-05-22T18:38:16.590Z,18.95
2023-05-22T18:41:19.968Z,12.85
2023-05-22T18:44:23.741Z,11.68
2023-05-22T18:47:28.764Z,16.80
2023-05-22T18:50:32.249Z,16.17
2023-05-22T18:53:35.574Z,16.00
2023-05-22T18:56:39.349Z,17.92
2023-05-22T18:59:43.500Z,20.02
2023-05-22T19:02:48.766Z,16.98
2023-05-22T19:05:52.512Z,12.25
2023-05-22T19:08:56.189Z,11.35
2023-05-22T19:11:59.567Z,13.95
2023-05-22T19:15:02.966Z,12.23
2023-05-22T19:18:07.779Z,14.00
2023-05-22T19:21:11.957Z,16.17
2023-05-22T19:24:15.435Z,18.20
2023-05-22T19:27:19.106Z,12.85
2023-05-22T19:30:22.534Z,18.08
2023-05-22T19:33:27.599Z,14.93
2023-05-22T19:36:32.670Z,19.73
2023-05-22T19:39:36.042Z,18.58
2023-05-22T19:42:39.966Z,15.88
2023-05-22T19:45:45.356Z,18.05
2023-05-22T19:48:52.345Z,13.88
2023-05-22T19:51:56.313Z,19.17
2023-05-22T19:54:59.881Z,18.30
2023-05-22T19:58:03.611Z,26.55
2023-05-22T20:01:06.910Z,20.88
2023-05-22T20:04:14.559Z,24.73
2023-05-22T20:07:18.072Z,26.90
2023-05-22T20:10:23.878Z,24.83
2023-05-22T20:13:27.422Z,31.13
2023-05-22T20:16:31.865Z,24.65
2023-05-22T20:19:39.500Z,25.70
2023-05-22T20:22:45.724Z,26.33
2023-05-22T20:25:49.215Z,24.02
2023-05-22T20:28:56.415Z,27.60
2023-05-22T20:32:02.235Z,27.73
2023-05-22T20:35:10.971Z,26.90
2023-05-22T20:38:16.334Z,35.10
2023-05-22T20:41:20.554Z,29.55
2023-05-22T20:44:24.763Z,27.98
2023-05-22T20:47:28.312Z,31.15
2023-05-22T20:50:36.155Z,38.28
2023-05-22T20:53:41.161Z,40.90
2023-05-22T20:56:44.530Z,44.40
2023-05-22T20:59:47.859Z,34.25
2023-05-22T21:02:51.192Z,37.20
2023-05-22T21:05:55.980Z,34.00
2023-05-22T21:09:01.570Z,42.78
2023-05-22T21:12:05.139Z,50.38
2023-05-22T21:15:09.718Z,47.22
2023-05-22T21:18:13.088Z,48.58
2023-05-22T21:21:21.570Z,41.53
2023-05-22T21:24:24.902Z,38.92
2023-05-22T21:27:28.451Z,38.50
2023-05-22T21:30:32.479Z,37.67
2023-05-22T21:33:36.381Z,37.65
2023-05-22T21:36:41.309Z,36.17
2023-05-22T21:39:44.591Z,35.00
2023-05-22T21:42:47.923Z,33.30
2023-05-22T21:45:51.250Z,33.20
2023-05-22T21:48:54.745Z,33.50
2023-05-22T21:51:59.450Z,36.35
2023-05-22T21:55:02.987Z,36.03
2023-05-22T21:58:06.333Z,29.38
2023-05-22T22:01:10.045Z,32.97
2023-05-22T22:04:13.382Z,37.40
2023-05-22T22:07:18.111Z,36.22
2023-05-22T22:10:21.391Z,38.88
2023-05-22T22:13:24.675Z,34.65
2023-05-22T22:16:28.478Z,32.58
2023-05-22T22:19:31.822Z,33.45
2023-05-22T22:22:36.894Z,32.08
2023-05-22T22:25:40.298Z,38.40
2023-05-22T22:28:43.637Z,38.08
2023-05-22T22:31:47.128Z,36.97
2023-05-22T22:34:53.807Z,32.50
2023-05-22T22:37:58.503Z,37.63
2023-05-22T22:41:02.089Z,54.78
2023-05-22T22:44:05.390Z,56.25
2023-05-22T22:47:09.209Z,46.92
2023-05-22T22:50:12.738Z,46.25
2023-05-22T22:53:17.476Z,36.30
2023-05-22T22:56:21.049Z,43.83
2023-05-22T22:59:24.379Z,40.67
2023-05-22T23:02:27.692Z,44.92
2023-05-22T23:05:31.076Z,35.65
2023-05-22T23:08:35.750Z,38.53
2023-05-22T23:11:39.330Z,35.65
2023-05-22T23:14:42.532Z,36.17
2023-05-22T23:17:45.970Z,44.83
2023-05-22T23:20:49.380Z,41.47
2023-05-22T23:23:54.010Z,37.95
2023-05-22T23:26:57.164Z,37.97
2023-05-22T23:30:00.377Z,34.28
2023-05-22T23:33:06.047Z,33.08
2023-05-22T23:36:09.324Z,29.70
2023-05-22T23:39:13.972Z,33.45
2023-05-22T23:42:18.016Z,32.00
2023-05-22T23:45:21.322Z,31.17
2023-05-22T23:48:24.613Z,34.47
2023-05-22T23:51:27.830Z,32.58
2023-05-22T23:54:32.408Z,34.35
2023-05-22T23:57:35.671Z,36.63
